Terminal Aerodrome Forecast
Issued by NWS

Home | Current Version | Previous Version | Text Only | Print | Product List | Glossary On
Versions: 1 2 3 4 5 6 7 8 9 10 11 12 13
000
FTUS45 KABQ 260500
TAFROW
TAF
KROW 260539Z 2606/2706 23010KT P6SM SCT120
     FM261700 20012G20KT P6SM BKN100
     FM261900 20020G30KT P6SM VCSH BKN090
      TEMPO 2619/2623 -RA BKN060
     FM262300 25020G30KT P6SM BKN060
     FM270300 27015KT P6SM BKN100=

USA.gov is the U.S. government's official web portal to all federal, state and local government web resources and services.